»·PEaware :: N7274H KSMX-KBFL

N7274H :: KSMX-KBFL

FLIGHT INFORMATION

Flight Status: Arrived
Operator: Privately registered:
United States
More flights under this callsign
Pilot: Steven Duran D. (32271)
Aircraft: CESSNA 172 SKYHAWK
(C172)
More flights by this aircraft type
Origin: KSMX Santa Maria Pub/Capt Hancock
United States
Destination: KBFL Meadows
United States
More flights between these airports :: More routes between these airports
Route: FLW
File this flight plan on PilotEdge
Remarks:
Altitude:
(Current/Filed)
7,500ft
Speed:
(Current/Filed)
108kts
Departed: 02-Nov-20 04:12 PM
Arrived: 02-Nov-20 05:00 PM
Distance/Time
Traveled:
76nm/0:48
Distance/Time
To Go:
Arrived

Flight Plot

Page will automatically refresh every two minutes.


Map Options




Map Legend


Flown Route
Filed Route
Departure Airport
Arrival Airport
Navaid (VOR, NDB)
Fix

Horizontal Profiles

Position Reports

Time Latitude Longitude Heading Altitude Ground
Speed
02-Nov-20 15:55 34.896184 -120.445475 314 264ft 0kts
02-Nov-20 15:56 34.896186 -120.445478 314 264ft 0kts
02-Nov-20 15:57 34.896189 -120.445481 314 264ft 0kts
02-Nov-20 15:58 34.896191 -120.445484 314 264ft 0kts
02-Nov-20 16:00 34.896193 -120.445486 314 264ft 0kts
02-Nov-20 16:01 34.896195 -120.445489 314 264ft 0kts
02-Nov-20 16:02 34.896197 -120.445492 314 264ft 0kts
02-Nov-20 16:03 34.896199 -120.445494 314 264ft 0kts
02-Nov-20 16:04 34.896201 -120.445497 314 264ft 0kts
02-Nov-20 16:05 34.896204 -120.445500 314 264ft 0kts
02-Nov-20 16:06 34.896206 -120.445502 314 264ft 0kts
02-Nov-20 16:07 34.896234 -120.445610 259 264ft 5kts
02-Nov-20 16:08 34.896438 -120.447733 134 264ft 7kts
02-Nov-20 16:09 34.893530 -120.445279 180 264ft 5kts
02-Nov-20 16:10 34.893513 -120.445279 181 264ft 0kts
02-Nov-20 16:11 34.893075 -120.446165 315 264ft 20kts
02-Nov-20 16:12 34.907348 -120.462738 316 1000ft 84kts
02-Nov-20 16:13 34.925933 -120.461492 38 2048ft 82kts
02-Nov-20 16:13 34.935841 -120.441462 73 2809ft 86kts
02-Nov-20 16:15 34.941668 -120.407597 79 3809ft 87kts
02-Nov-20 16:15 34.938982 -120.383310 112 4469ft 89kts
02-Nov-20 16:17 34.929413 -120.350714 82 5337ft 85kts
02-Nov-20 16:17 34.933304 -120.327994 73 5957ft 78kts
02-Nov-20 16:18 34.941899 -120.304467 58 6629ft 75kts
02-Nov-20 16:20 34.956316 -120.278929 59 7400ft 80kts
02-Nov-20 16:20 34.966494 -120.255843 67 7517ft 103kts
02-Nov-20 16:22 34.979103 -120.216699 68 7498ft 107kts
02-Nov-20 16:22 34.988348 -120.188277 67 7497ft 108kts
02-Nov-20 16:23 34.999465 -120.154169 67 7495ft 108kts
02-Nov-20 16:24 35.010567 -120.120078 68 7495ft 108kts
02-Nov-20 16:25 35.021655 -120.085997 67 7495ft 108kts
02-Nov-20 16:26 35.032769 -120.051798 67 7495ft 108kts
02-Nov-20 16:27 35.043869 -120.017601 67 7491ft 108kts
02-Nov-20 16:28 35.054996 -119.983282 68 7490ft 108kts
02-Nov-20 16:29 35.066073 -119.949077 68 7490ft 108kts
02-Nov-20 16:30 35.077140 -119.914869 68 7490ft 108kts
02-Nov-20 16:31 35.088198 -119.880640 68 7489ft 108kts
02-Nov-20 16:32 35.100858 -119.847324 62 7490ft 108kts
02-Nov-20 16:33 35.114767 -119.814678 62 7490ft 108kts
02-Nov-20 16:34 35.128657 -119.782072 62 7489ft 108kts
02-Nov-20 16:35 35.142558 -119.749413 62 7490ft 108kts
02-Nov-20 16:36 35.156397 -119.716868 62 7510ft 106kts
02-Nov-20 16:37 35.170167 -119.684457 62 7519ft 107kts
02-Nov-20 16:38 35.184028 -119.651797 62 7519ft 108kts
02-Nov-20 16:39 35.197879 -119.619125 62 7520ft 108kts
02-Nov-20 16:40 35.211750 -119.586393 62 7520ft 108kts
02-Nov-20 16:41 35.225600 -119.553668 62 7520ft 108kts
02-Nov-20 16:42 35.239444 -119.520920 62 7519ft 108kts
02-Nov-20 16:43 35.253250 -119.488230 62 7519ft 108kts
02-Nov-20 16:44 35.267096 -119.455413 62 7515ft 108kts
02-Nov-20 16:45 35.279656 -119.424899 63 7028ft 100kts
02-Nov-20 16:46 35.292444 -119.394159 62 6525ft 102kts
02-Nov-20 16:47 35.305489 -119.363456 62 6051ft 101kts
02-Nov-20 16:48 35.318790 -119.332778 61 5564ft 102kts
02-Nov-20 16:49 35.331782 -119.302147 60 5051ft 100kts
02-Nov-20 16:50 35.344806 -119.271855 62 4548ft 100kts
02-Nov-20 16:51 35.357025 -119.240976 61 4065ft 101kts
02-Nov-20 16:52 35.368849 -119.209883 66 3602ft 100kts
02-Nov-20 16:53 35.379440 -119.177742 65 3100ft 102kts
02-Nov-20 16:54 35.390977 -119.145921 62 2618ft 102kts
02-Nov-20 16:55 35.402806 -119.113682 74 2088ft 106kts
02-Nov-20 16:56 35.408926 -119.078045 83 1561ft 108kts
02-Nov-20 16:57 35.416257 -119.047680 41 1176ft 77kts
02-Nov-20 16:58 35.431800 -119.053714 313 550ft 60kts
02-Nov-20 16:59 35.436320 -119.057612 66 510ft 0kts
02-Nov-20 17:00 35.435886 -119.056432 136 510ft 20kts
02-Nov-20 17:01 35.430734 -119.050186 137 510ft 19kts

Navigation Log

Ident Type
Flight plan parsing failed, navigation log unavailable